Time;durP1;ratioP1;P1;durP2;ratioP2;P2;SDS_P1;SDS_P2;PMS_P1;PMS_P2;Temp;Humidity;BMP_temperature;BMP_pressure;BME280_temperature;BME280_humidity;BME280_pressure;Samples;Min_cycle;Max_cycle;Signal;HPM_P1;HPM_P2
2022/03/24 00:02:12;;;;;;;52.10;32.97;;;5.90;99.90;;;;;;5031312;28;20061;-69
2022/03/24 00:04:38;;;;;;;58.08;33.28;;;5.80;99.90;;;;;;5031367;28;20042;-69
2022/03/24 00:07:04;;;;;;;52.53;32.17;;;6.20;99.90;;;;;;5031447;28;20044;-69
2022/03/24 00:09:30;;;;;;;47.28;32.85;;;;;;;;;;5031349;28;20049;-69
2022/03/24 00:11:57;;;;;;;45.63;32.92;;;;;;;;;;5013703;28;20460;-69
2022/03/24 00:14:22;;;;;;;52.28;33.38;;;5.60;99.90;;;;;;5013819;28;20049;-69
2022/03/24 00:16:49;;;;;;;50.50;33.90;;;5.60;99.90;;;;;;5031379;28;20100;-69
2022/03/24 00:19:17;;;;;;;56.38;35.00;;;5.50;99.90;;;;;;5031398;28;20116;-69
2022/03/24 00:21:46;;;;;;;52.55;33.70;;;4.80;99.90;;;;;;5031167;28;20103;-69
2022/03/24 00:24:13;;;;;;;54.00;34.67;;;5.20;99.90;;;;;;5030981;28;20072;-69
2022/03/24 00:26:39;;;;;;;53.45;34.10;;;;;;;;;;5031451;28;20042;-69
2022/03/24 00:29:05;;;;;;;55.40;34.70;;;5.40;99.90;;;;;;5031100;28;20076;-69
2022/03/24 00:31:31;;;;;;;56.17;36.50;;;;;;;;;;5013474;28;20080;-69
2022/03/24 00:33:57;;;;;;;51.42;34.45;;;5.30;99.90;;;;;;5032775;28;20034;-69
2022/03/24 00:36:23;;;;;;;49.92;34.28;;;5.30;99.90;;;;;;5016875;28;20038;-69
2022/03/24 00:38:52;;;;;;;50.75;35.05;;;;;;;;;;5035052;28;20144;-69
2022/03/24 00:41:19;;;;;;;53.97;34.65;;;5.40;99.90;;;;;;5017838;28;20141;-69
2022/03/24 00:43:48;;;;;;;49.70;34.63;;;;;;;;;;5033656;28;20081;-69
2022/03/24 00:46:14;;;;;;;60.20;35.70;;;;;;;;;;5034747;28;20440;-69
2022/03/24 00:48:40;;;;;;;54.40;34.78;;;5.10;99.90;;;;;;5034571;28;20497;-69
2022/03/24 00:51:06;;;;;;;49.95;34.08;;;;;;;;;;5016695;28;20080;-69
2022/03/24 00:53:32;;;;;;;53.92;35.63;;;5.40;99.90;;;;;;5016995;28;20048;-68
2022/03/24 00:55:59;;;;;;;61.42;35.17;;;;;;;;;;5034588;28;20033;-69
2022/03/24 00:58:25;;;;;;;54.08;35.15;;;4.90;99.90;;;;;;5026839;28;20049;-68
2022/03/24 01:00:50;;;;;;;49.45;35.83;;;4.80;99.90;;;;;;5034257;28;20110;-70
2022/03/24 01:03:16;;;;;;;55.03;35.42;;;4.60;99.90;;;;;;5034127;28;20068;-69
2022/03/24 01:05:42;;;;;;;56.97;36.05;;;5.00;99.90;;;;;;5033201;28;20052;-68
2022/03/24 01:08:08;;;;;;;55.25;36.17;;;4.70;99.90;;;;;;5034565;28;20044;-68
2022/03/24 01:10:36;;;;;;;53.88;35.65;;;4.70;99.90;;;;;;5034104;28;20037;-68
2022/03/24 01:13:03;;;;;;;50.67;36.00;;;5.40;99.90;;;;;;5016639;28;20046;-68
2022/03/24 01:15:30;;;;;;;54.80;34.72;;;;;;;;;;5033896;28;20445;-68
2022/03/24 01:17:59;;;;;;;48.80;33.40;;;;;;;;;;5034056;28;20096;-68
2022/03/24 01:20:25;;;;;;;52.38;34.58;;;;;;;;;;5034544;28;20041;-68
2022/03/24 01:22:51;;;;;;;54.53;36.53;;;;;;;;;;5033827;28;20517;-69
2022/03/24 01:25:17;;;;;;;54.90;36.28;;;4.80;99.90;;;;;;5034105;28;20045;-69
2022/03/24 01:27:42;;;;;;;51.97;36.00;;;4.10;99.90;;;;;;5033852;28;20037;-70
2022/03/24 01:30:09;;;;;;;55.17;35.28;;;5.00;99.90;;;;;;5033854;28;20046;-69
2022/03/24 01:32:36;;;;;;;57.97;36.35;;;4.70;99.90;;;;;;5033702;28;20042;-69
2022/03/24 01:35:06;;;;;;;54.67;36.40;;;4.50;99.90;;;;;;5033895;28;20069;-70
2022/03/24 01:37:32;;;;;;;52.35;35.35;;;4.40;99.90;;;;;;5015972;28;20050;-70
2022/03/24 01:39:58;;;;;;;58.47;37.05;;;;;;;;;;5034051;28;20041;-70
2022/03/24 01:42:26;;;;;;;52.42;35.28;;;4.00;99.90;;;;;;5007902;28;20512;-70
2022/03/24 01:44:54;;;;;;;50.88;36.25;;;4.20;99.90;;;;;;5015299;28;20050;-69
2022/03/24 01:47:19;;;;;;;56.85;37.38;;;4.20;99.90;;;;;;5033358;28;20048;-70
2022/03/24 01:49:49;;;;;;;56.95;38.75;;;4.00;99.90;;;;;;5033369;28;20041;-70
2022/03/24 01:52:17;;;;;;;53.30;38.20;;;4.30;99.90;;;;;;5015211;28;20497;-70
2022/03/24 01:54:45;;;;;;;55.72;38.88;;;4.50;99.90;;;;;;5033012;28;20570;-70
2022/03/24 01:57:12;;;;;;;50.88;36.78;;;4.10;99.90;;;;;;5033049;28;20045;-70
2022/03/24 01:59:39;;;;;;;54.13;37.83;;;4.30;99.90;;;;;;5032330;28;20034;-70
2022/03/24 02:02:05;;;;;;;55.08;37.38;;;3.90;99.90;;;;;;5033397;28;20038;-70
2022/03/24 02:04:35;;;;;;;56.00;36.50;;;3.90;99.90;;;;;;5033292;28;20049;-70
2022/03/24 02:07:02;;;;;;;61.10;37.05;;;4.10;99.90;;;;;;5033123;28;20056;-70
2022/03/24 02:09:27;;;;;;;56.70;39.15;;;3.50;99.90;;;;;;5033156;28;20334;-70
2022/03/24 02:11:54;;;;;;;57.35;38.75;;;;;;;;;;5015531;28;20046;-68
2022/03/24 02:14:20;;;;;;;62.92;38.78;;;3.90;99.90;;;;;;5033012;28;20037;-68
2022/03/24 02:16:48;;;;;;;63.00;38.20;;;3.00;99.90;;;;;;5033065;28;20047;-68
2022/03/24 02:19:21;;;;;;;58.35;39.80;;;4.00;99.90;;;;;;4998980;28;20037;-68
2022/03/24 02:21:48;;;;;;;58.17;39.55;;;4.00;99.90;;;;;;5033129;28;20370;-68
2022/03/24 02:24:16;;;;;;;62.55;39.05;;;4.10;99.90;;;;;;5032626;28;20404;-68
2022/03/24 02:26:44;;;;;;;56.80;39.72;;;4.20;99.90;;;;;;5032885;28;20049;-68
2022/03/24 02:29:11;;;;;;;66.07;40.25;;;3.90;99.90;;;;;;5014613;28;20060;-68
2022/03/24 02:31:39;;;;;;;64.72;41.72;;;4.00;99.90;;;;;;5032733;28;20029;-68
2022/03/24 02:36:55;;;;;;;64.95;40.50;;;3.80;99.90;;;;;;5032640;28;20049;-68
2022/03/24 02:39:21;;;;;;;64.20;41.17;;;3.80;99.90;;;;;;5014979;28;20060;-68
2022/03/24 02:41:53;;;;;;;57.60;38.70;;;3.80;99.90;;;;;;5032404;28;20048;-68
2022/03/24 02:44:20;;;;;;;61.55;41.22;;;3.90;99.90;;;;;;5032410;28;20554;-68
2022/03/24 02:46:47;;;;;;;56.33;40.58;;;3.80;99.90;;;;;;5032262;28;20042;-68
2022/03/24 02:49:17;;;;;;;59.15;39.78;;;4.00;99.90;;;;;;5032070;28;20076;-68
2022/03/24 02:51:42;;;;;;;66.07;41.72;;;3.70;99.90;;;;;;5014811;28;20053;-68
2022/03/24 02:54:09;;;;;;;60.97;40.88;;;3.70;99.90;;;;;;5014445;28;20083;-68
2022/03/24 02:56:42;;;;;;;60.25;40.78;;;3.80;99.90;;;;;;5031872;28;20092;-68
2022/03/24 02:59:09;;;;;;;60.58;36.83;;;3.60;99.90;;;;;;5032392;28;20045;-68
2022/03/24 03:01:38;;;;;;;60.72;38.17;;;3.60;99.90;;;;;;5032028;28;20091;-68
2022/03/24 03:04:05;;;;;;;56.63;40.30;;;3.50;99.90;;;;;;5014049;28;20059;-68
2022/03/24 03:06:34;;;;;;;63.45;40.95;;;3.50;99.90;;;;;;5032371;28;20047;-68
2022/03/24 03:09:02;;;;;;;59.50;41.90;;;3.50;99.90;;;;;;5013972;28;20045;-68
2022/03/24 03:11:31;;;;;;;59.50;41.55;;;3.20;99.90;;;;;;5031897;28;20052;-68
2022/03/24 03:13:58;;;;;;;60.75;40.90;;;3.10;99.90;;;;;;5014195;28;20059;-68
2022/03/24 03:16:24;;;;;;;59.65;41.22;;;3.50;99.90;;;;;;5014386;28;20121;-68
2022/03/24 03:18:50;;;;;;;60.08;36.50;;;;;;;;;;5031733;28;20125;-68
2022/03/24 03:21:17;;;;;;;64.38;41.95;;;3.40;99.90;;;;;;5032011;28;20049;-68
2022/03/24 03:23:43;;;;;;;58.83;41.47;;;3.40;99.90;;;;;;5031986;28;20068;-68
2022/03/24 03:26:11;;;;;;;66.45;43.63;;;3.10;99.90;;;;;;5031997;28;20103;-68
2022/03/24 03:28:38;;;;;;;70.65;44.83;;;3.40;99.90;;;;;;5014297;28;20500;-68
2022/03/24 03:31:05;;;;;;;75.55;40.03;;;4.20;99.90;;;;;;5031938;28;20056;-68
2022/03/24 03:33:34;;;;;;;68.30;45.65;;;2.90;99.90;;;;;;5031907;28;20029;-68
2022/03/24 03:36:00;;;;;;;64.97;47.13;;;3.60;99.90;;;;;;5014456;28;20108;-68
2022/03/24 03:38:26;;;;;;;74.72;47.17;;;3.30;99.90;;;;;;5031784;28;20041;-68
2022/03/24 03:40:53;;;;;;;68.65;47.45;;;3.20;99.90;;;;;;5013746;28;20408;-68
2022/03/24 03:43:19;;;;;;;74.80;47.13;;;3.20;99.90;;;;;;5031692;28;20044;-68
2022/03/24 03:45:46;;;;;;;70.97;42.20;;;;;;;;;;5014091;28;20048;-68
2022/03/24 03:48:12;;;;;;;68.82;46.65;;;;;;;;;;5031779;28;20048;-68
2022/03/24 03:50:41;;;;;;;72.85;46.13;;;3.30;99.90;;;;;;5031653;28;20117;-68
2022/03/24 03:53:08;;;;;;;70.88;42.17;;;3.70;99.90;;;;;;5013749;28;20096;-68
2022/03/24 03:55:37;;;;;;;66.65;45.88;;;3.20;99.90;;;;;;5029977;28;20050;-68
2022/03/24 03:58:06;;;;;;;74.45;45.85;;;5.10;99.90;;;;;;5031488;28;20124;-68
2022/03/24 04:03:39;;;;;;;74.13;43.17;;;3.10;99.90;;;;;;5013491;28;20061;-68
2022/03/24 04:06:06;;;;;;;;;;;4.40;99.90;;;;;;5014051;28;20064;-68
2022/03/24 04:08:32;;;;;;;67.90;38.35;;;2.80;99.90;;;;;;5034021;28;19921;-68
2022/03/24 04:10:59;;;;;;;64.95;37.45;;;3.20;99.90;;;;;;5035649;28;20033;-68
2022/03/24 04:13:24;;;;;;;67.07;42.05;;;3.00;99.90;;;;;;5017511;28;20060;-68
2022/03/24 04:15:52;;;;;;;64.05;42.53;;;2.80;99.90;;;;;;5017286;28;20042;-70
2022/03/24 04:18:18;;;;;;;66.25;39.65;;;;;;;;;;5017283;28;20043;-70
2022/03/24 04:20:44;;;;;;;72.68;40.75;;;3.00;99.90;;;;;;5035299;28;20424;-70
2022/03/24 04:23:11;;;;;;;69.88;46.50;;;2.80;99.90;;;;;;5035380;28;20440;-70
2022/03/24 04:25:37;;;;;;;70.80;45.80;;;2.70;99.90;;;;;;5017523;28;20056;-70
2022/03/24 04:28:04;;;;;;;74.35;46.45;;;2.90;99.90;;;;;;5035198;28;20076;-70
2022/03/24 04:30:31;;;;;;;70.53;41.38;;;2.80;99.90;;;;;;5034665;28;20458;-70
2022/03/24 04:32:57;;;;;;;75.20;48.28;;;2.70;99.90;;;;;;5034948;28;20115;-70
2022/03/24 04:35:22;;;;;;;73.38;45.75;;;3.00;99.90;;;;;;5026769;28;20033;-69
2022/03/24 04:37:49;;;;;;;70.45;46.55;;;2.70;99.90;;;;;;5035035;28;20519;-70
2022/03/24 04:40:16;;;;;;;71.30;48.50;;;;;;;;;;5034934;28;20318;-70
2022/03/24 04:42:46;;;;;;;81.95;47.55;;;2.30;99.90;;;;;;5035207;28;20069;-70
2022/03/24 04:45:13;;;;;;;78.53;43.67;;;;;;;;;;5034843;28;20087;-70
2022/03/24 04:47:42;;;;;;;71.32;41.80;;;1.80;99.90;;;;;;5034831;28;20041;-69
2022/03/24 04:50:08;;;;;;;75.63;42.97;;;3.20;99.90;;;;;;5034720;28;20038;-70
2022/03/24 04:52:34;;;;;;;76.88;41.42;;;;;;;;;;5016928;28;20043;-70
2022/03/24 04:55:00;;;;;;;70.82;38.85;;;2.60;99.90;;;;;;5034310;28;20033;-70
2022/03/24 04:57:27;;;;;;;67.60;44.38;;;2.30;99.90;;;;;;5016608;28;20507;-70
2022/03/24 04:59:53;;;;;;;68.75;42.03;;;2.80;99.90;;;;;;5034537;28;20037;-70
2022/03/24 05:02:19;;;;;;;68.13;38.63;;;2.50;99.90;;;;;;5034400;28;20045;-70
2022/03/24 05:04:45;;;;;;;63.20;40.42;;;2.60;99.90;;;;;;5034680;28;20045;-70
2022/03/24 05:07:12;;;;;;;70.20;41.42;;;2.50;99.90;;;;;;5034139;28;20124;-70
2022/03/24 05:09:39;;;;;;;69.35;41.45;;;2.70;99.90;;;;;;5034003;28;20038;-70
2022/03/24 05:12:05;;;;;;;79.95;43.42;;;3.00;99.90;;;;;;5034318;28;20087;-70
2022/03/24 05:14:32;;;;;;;79.38;44.65;;;1.90;99.90;;;;;;5034215;28;20029;-70
2022/03/24 05:16:58;;;;;;;77.45;41.97;;;2.30;99.90;;;;;;5033872;28;20033;-70
2022/03/24 05:19:24;;;;;;;80.00;43.50;;;2.20;99.90;;;;;;5033193;28;20052;-70
2022/03/24 05:21:50;;;;;;;75.20;42.65;;;2.70;99.90;;;;;;5034197;28;20046;-70
2022/03/24 05:24:16;;;;;;;81.00;43.90;;;2.60;99.90;;;;;;5034302;28;20370;-70
2022/03/24 05:26:42;;;;;;;82.30;44.70;;;1.60;99.90;;;;;;5033959;28;20120;-69
2022/03/24 05:29:09;;;;;;;74.53;45.85;;;;;;;;;;5033454;28;20045;-67
2022/03/24 05:31:34;;;;;;;73.60;49.25;;;2.30;99.90;;;;;;5033581;28;20477;-67
2022/03/24 05:34:00;;;;;;;74.47;47.53;;;2.10;99.90;;;;;;5016036;28;20087;-67
2022/03/24 05:36:26;;;;;;;75.22;47.15;;;2.50;99.90;;;;;;5033790;28;20091;-67
2022/03/24 05:38:51;;;;;;;78.25;47.88;;;2.60;99.90;;;;;;5033645;28;20481;-67
2022/03/24 05:41:18;;;;;;;78.97;48.65;;;2.50;99.90;;;;;;5033767;28;20045;-67
2022/03/24 05:46:36;;;;;;;76.30;47.47;;;1.60;99.90;;;;;;5015787;28;20045;-67
2022/03/24 05:49:04;;;;;;;80.35;48.33;;;1.90;99.90;;;;;;5033562;28;20069;-67
2022/03/24 05:51:30;;;;;;;77.47;47.90;;;;;;;;;;5033275;28;20103;-67
2022/03/24 05:53:56;;;;;;;76.53;45.17;;;3.10;99.90;;;;;;5033451;28;20065;-67
2022/03/24 05:56:22;;;;;;;76.78;49.00;;;2.50;99.90;;;;;;5015699;28;20123;-67
2022/03/24 05:58:48;;;;;;;82.13;50.25;;;2.70;99.90;;;;;;5015314;28;20504;-67
2022/03/24 06:01:15;;;;;;;72.53;40.60;;;2.60;99.90;;;;;;5015247;28;20489;-67
2022/03/24 06:03:44;;;;;;;80.72;44.38;;;2.60;99.90;;;;;;5032960;28;20358;-69
2022/03/24 06:06:10;;;;;;;86.22;44.75;;;2.90;99.90;;;;;;5015639;28;20046;-68
2022/03/24 06:08:36;;;;;;;79.60;47.80;;;2.90;99.90;;;;;;5032752;28;20130;-67
2022/03/24 06:11:04;;;;;;;72.65;48.80;;;;;;;;;;5033154;28;20065;-67
2022/03/24 06:13:31;;;;;;;75.57;49.50;;;;;;;;;;5015308;28;20397;-67
2022/03/24 06:16:01;;;;;;;73.75;47.75;;;;;;;;;;5032830;28;20473;-67
2022/03/24 06:18:28;;;;;;;72.00;45.55;;;4.50;99.90;;;;;;5015368;28;20434;-67
2022/03/24 06:20:53;;;;;;;70.47;45.85;;;5.90;99.90;;;;;;5032741;28;20393;-68
2022/03/24 06:23:19;;;;;;;70.50;44.80;;;6.40;99.90;;;;;;5032831;28;20038;-67
2022/03/24 06:25:44;;;;;;;67.85;43.88;;;7.40;99.90;;;;;;5031644;28;20095;-68
2022/03/24 06:28:11;;;;;;;66.45;41.10;;;;;;;;;;5015106;28;20053;-67
2022/03/24 06:30:37;;;;;;;60.70;39.50;;;8.90;99.90;;;;;;5031717;28;20484;-67
2022/03/24 06:33:03;;;;;;;55.17;40.22;;;9.50;99.90;;;;;;5032384;28;20045;-67
2022/03/24 06:35:29;;;;;;;57.38;39.65;;;;;;;;;;5032743;28;20061;-70
2022/03/24 06:37:56;;;;;;;56.03;39.20;;;;;;;;;;5032615;28;20037;-70
2022/03/24 06:40:22;;;;;;;53.80;37.95;;;10.70;99.90;;;;;;5032597;28;20053;-67
2022/03/24 06:42:47;;;;;;;58.78;38.63;;;11.00;99.90;;;;;;5014518;28;20132;-68
2022/03/24 06:45:14;;;;;;;55.88;38.72;;;11.00;99.10;;;;;;5032474;28;20112;-68
2022/03/24 06:47:40;;;;;;;55.85;40.42;;;11.30;99.90;;;;;;5032629;28;20056;-68
2022/03/24 06:50:10;;;;;;;55.47;38.85;;;11.00;99.40;;;;;;5032133;28;20108;-68
2022/03/24 06:52:35;;;;;;;53.38;37.30;;;10.80;99.90;;;;;;5014474;28;20045;-68
2022/03/24 06:55:01;;;;;;;53.22;37.00;;;11.20;99.90;;;;;;5031890;28;20082;-68
2022/03/24 06:57:27;;;;;;;49.30;36.15;;;11.80;99.90;;;;;;5014482;28;20045;-67
2022/03/24 06:59:53;;;;;;;54.95;38.22;;;11.10;99.90;;;;;;5014485;28;20103;-67
2022/03/24 07:02:18;;;;;;;53.53;38.47;;;11.60;99.90;;;;;;5014018;28;20083;-68
2022/03/24 07:04:44;;;;;;;51.20;35.65;;;11.20;99.90;;;;;;5031966;28;20528;-67
2022/03/24 07:07:10;;;;;;;47.75;35.53;;;11.30;99.90;;;;;;5032314;28;20041;-67
2022/03/24 07:09:35;;;;;;;47.35;35.67;;;10.70;99.90;;;;;;5032085;28;20105;-68
2022/03/24 07:12:01;;;;;;;51.40;36.90;;;10.00;99.90;;;;;;5013912;28;20438;-68
2022/03/24 07:14:28;;;;;;;51.75;36.38;;;10.20;99.90;;;;;;5013823;28;20041;-68
2022/03/24 07:16:53;;;;;;;55.33;38.90;;;10.00;99.90;;;;;;5013935;28;20087;-68
2022/03/24 07:19:19;;;;;;;53.47;37.22;;;9.40;99.90;;;;;;5031792;28;20112;-68
2022/03/24 07:21:46;;;;;;;52.88;38.88;;;9.20;99.90;;;;;;5031431;28;20052;-68
2022/03/24 07:24:12;;;;;;;52.45;38.50;;;9.70;99.90;;;;;;5031504;28;20033;-68
2022/03/24 07:26:38;;;;;;;58.55;39.28;;;8.80;99.90;;;;;;5031877;28;20060;-68
2022/03/24 07:29:04;;;;;;;56.15;38.35;;;9.10;99.90;;;;;;5031861;28;20092;-68
2022/03/24 07:31:31;;;;;;;68.72;39.90;;;;;;;;;;5031405;28;20548;-68
2022/03/24 07:33:57;;;;;;;63.13;40.35;;;9.00;99.90;;;;;;5013919;28;20048;-68
2022/03/24 07:36:24;;;;;;;56.13;39.90;;;9.30;99.90;;;;;;5013568;28;20057;-68
2022/03/24 07:38:52;;;;;;;62.60;39.00;;;9.20;99.90;;;;;;5031582;28;20103;-68
2022/03/24 07:41:17;;;;;;;60.20;39.55;;;9.40;99.90;;;;;;5031480;28;20034;-68
2022/03/24 07:43:43;;;;;;;58.60;40.20;;;9.30;99.90;;;;;;5031113;28;20033;-68
2022/03/24 07:46:09;;;;;;;57.75;40.90;;;;;;;;;;5031516;28;20095;-68
2022/03/24 07:48:35;;;;;;;54.08;39.42;;;9.50;99.90;;;;;;5031511;28;20432;-68
2022/03/24 07:51:00;;;;;;;54.90;37.53;;;9.60;99.90;;;;;;5031409;28;20110;-68
2022/03/24 07:53:30;;;;;;;63.55;39.03;;;9.80;99.90;;;;;;5031423;28;20065;-68
2022/03/24 07:55:58;;;;;;;58.72;38.78;;;9.80;99.90;;;;;;5031433;28;20038;-68
2022/03/24 07:58:25;;;;;;;57.78;38.10;;;9.90;99.90;;;;;;5013856;28;20041;-68
2022/03/24 08:00:51;;;;;;;54.97;38.53;;;;;;;;;;5031035;28;20037;-68
2022/03/24 08:03:19;;;;;;;65.22;38.63;;;10.20;99.90;;;;;;5030871;28;20077;-68
2022/03/24 08:05:46;;;;;;;57.45;39.22;;;10.00;99.90;;;;;;5013494;28;20045;-68
2022/03/24 08:08:13;;;;;;;54.08;36.60;;;;;;;;;;5013243;28;20517;-69
2022/03/24 08:10:43;;;;;;;60.60;37.70;;;10.10;99.90;;;;;;5013761;28;20054;-69
2022/03/24 08:13:11;;;;;;;52.90;35.30;;;10.30;99.90;;;;;;5031207;28;20084;-68
2022/03/24 08:15:37;;;;;;;57.90;37.00;;;10.30;99.90;;;;;;5031141;28;20385;-68
2022/03/24 08:18:08;;;;;;;70.43;37.17;;;10.90;99.90;;;;;;5013381;28;20058;-68
2022/03/24 08:20:35;;;;;;;69.50;36.75;;;11.80;99.90;;;;;;5031122;28;20124;-68
2022/03/24 08:23:02;;;;;;;58.22;35.13;;;13.30;99.60;;;;;;5031172;28;20080;-68
2022/03/24 08:25:28;;;;;;;65.05;37.15;;;13.60;90.30;;;;;;5031059;28;20126;-68
2022/03/24 08:27:54;;;;;;;67.40;35.80;;;;;;;;;;5013291;28;20049;-68
2022/03/24 08:30:20;;;;;;;82.38;36.60;;;;;;;;;;5013264;28;20061;-68
2022/03/24 08:32:46;;;;;;;73.18;36.20;;;;;;;;;;5030846;28;20124;-68
2022/03/24 08:35:12;;;;;;;70.38;35.72;;;;;;;;;;5031079;28;20069;-68
2022/03/24 08:37:38;;;;;;;83.55;36.97;;;16.30;83.10;;;;;;5031113;28;20069;-69
2022/03/24 08:40:05;;;;;;;76.00;36.50;;;16.50;65.00;;;;;;5013297;28;20073;-69
2022/03/24 08:42:31;;;;;;;57.13;34.90;;;;;;;;;;5030628;28;20385;-69
2022/03/24 08:44:56;;;;;;;50.83;34.55;;;15.80;65.20;;;;;;5030770;28;20033;-69
2022/03/24 08:47:22;;;;;;;53.58;35.05;;;16.40;81.40;;;;;;5030936;28;20034;-69
2022/03/24 08:49:48;;;;;;;58.83;35.13;;;;;;;;;;5013160;28;20050;-69
2022/03/24 08:52:14;;;;;;;53.25;35.10;;;16.90;82.80;;;;;;5030925;28;20047;-69
2022/03/24 08:54:39;;;;;;;59.67;34.58;;;16.80;81.30;;;;;;5031949;28;20037;-69
2022/03/24 08:57:06;;;;;;;50.33;33.03;;;;;;;;;;5034336;28;20065;-69
2022/03/24 08:59:32;;;;;;;50.60;32.20;;;;;;;;;;5016376;28;20045;-69
2022/03/24 09:01:58;;;;;;;51.67;33.85;;;17.60;62.90;;;;;;5034598;28;20420;-69
2022/03/24 09:04:26;;;;;;;57.92;32.15;;;;;;;;;;5016178;28;20059;-70
2022/03/24 09:06:53;;;;;;;50.20;31.65;;;17.20;57.90;;;;;;5034158;28;20049;-70
2022/03/24 09:09:22;;;;;;;54.33;31.90;;;16.90;74.80;;;;;;5016069;28;20042;-70
2022/03/24 09:11:50;;;;;;;45.03;29.73;;;17.20;74.70;;;;;;5016365;28;20561;-70
2022/03/24 09:14:16;;;;;;;49.63;29.35;;;16.50;61.60;;;;;;5033936;28;20049;-70
2022/03/24 09:16:43;;;;;;;55.97;30.90;;;;;;;;;;5033999;28;20589;-69
2022/03/24 09:19:08;;;;;;;57.60;29.27;;;16.60;76.90;;;;;;5034006;28;20045;-70
2022/03/24 09:21:34;;;;;;;48.95;29.40;;;16.90;77.60;;;;;;5034089;28;20047;-70
2022/03/24 09:24:00;;;;;;;46.92;28.73;;;17.10;77.60;;;;;;5015830;28;20041;-70
2022/03/24 09:26:26;;;;;;;44.20;28.48;;;;;;;;;;5033766;28;20064;-71
2022/03/24 09:28:52;;;;;;;50.28;29.10;;;17.10;71.50;;;;;;5015894;28;20124;-71
2022/03/24 09:31:19;;;;;;;46.80;28.63;;;17.20;79.30;;;;;;5033694;28;20116;-70
2022/03/24 09:33:45;;;;;;;50.80;29.52;;;;;;;;;;5033398;28;20478;-68
2022/03/24 09:36:12;;;;;;;51.35;28.88;;;17.30;77.00;;;;;;5018085;28;20165;-67
2022/03/24 09:38:38;;;;;;;48.88;28.80;;;17.40;74.20;;;;;;4999165;28;20447;-67
2022/03/24 09:41:05;;;;;;;49.53;29.50;;;16.90;74.20;;;;;;5028941;28;20127;-67
2022/03/24 09:43:34;;;;;;;47.25;28.38;;;17.10;54.90;;;;;;5009298;28;20046;-67
2022/03/24 09:46:01;;;;;;;46.65;29.05;;;17.40;84.20;;;;;;4973755;28;20116;-67
2022/03/24 09:48:27;;;;;;;44.15;29.13;;;;;;;;;;4975210;28;20193;-67
2022/03/24 09:50:53;;;;;;;47.53;28.88;;;17.10;81.90;;;;;;4974387;28;20061;-67
2022/03/24 09:53:19;;;;;;;46.22;28.20;;;16.60;53.30;;;;;;4973900;28;20501;-68
2022/03/24 09:55:47;;;;;;;47.65;29.13;;;16.40;81.20;;;;;;4978083;28;20125;-68
2022/03/24 09:58:12;;;;;;;46.40;28.00;;;16.90;82.90;;;;;;4976967;28;20042;-67
2022/03/24 10:00:38;;;;;;;44.53;26.60;;;17.10;71.20;;;;;;4991180;28;20057;-68
2022/03/24 10:03:08;;;;;;;41.55;25.70;;;17.10;82.90;;;;;;5017572;28;20089;-68
2022/03/24 10:05:33;;;;;;;43.95;26.10;;;17.50;84.10;;;;;;5012263;28;20050;-68
2022/03/24 10:08:05;;;;;;;40.65;25.33;;;17.40;52.60;;;;;;4992575;28;20161;-68
2022/03/24 10:10:34;;;;;;;47.33;26.00;;;;;;;;;;5006958;28;20371;-68
2022/03/24 10:13:04;;;;;;;45.45;23.70;;;16.80;81.90;;;;;;5008566;28;20116;-68
2022/03/24 10:15:30;;;;;;;52.15;25.27;;;17.50;57.40;;;;;;5011641;28;20046;-67
2022/03/24 10:17:58;;;;;;;50.42;24.88;;;17.40;51.50;;;;;;5011302;28;20131;-68
2022/03/24 10:20:28;;;;;;;40.45;25.48;;;17.30;51.80;;;;;;4993211;28;20041;-68
2022/03/24 10:23:00;;;;;;;43.17;25.63;;;17.30;80.50;;;;;;4998114;28;20590;-68
2022/03/24 10:25:28;;;;;;;44.72;25.10;;;17.10;55.50;;;;;;5010016;28;20049;-68
2022/03/24 10:28:14;;;;;;;41.17;25.33;;;17.30;51.20;;;;;;5029980;28;20049;-68
2022/03/24 10:30:54;;;;;;;38.97;24.48;;;16.90;79.60;;;;;;5011219;28;20045;-68
2022/03/24 10:33:27;;;;;;;46.45;25.98;;;16.70;53.30;;;;;;5007436;28;20501;-68
2022/03/24 10:36:13;;;;;;;42.10;25.67;;;17.00;80.00;;;;;;4984212;28;20045;-68
2022/03/24 10:38:40;;;;;;;;;;;17.00;50.00;;;;;;5001881;28;20107;-68
2022/03/24 10:41:15;;;;;;;42.75;26.50;;;17.00;51.70;;;;;;5013499;28;20309;-68
2022/03/24 10:43:42;;;;;;;39.17;25.25;;;17.30;52.00;;;;;;4997168;28;20052;-68
2022/03/24 10:46:22;;;;;;;40.45;25.92;;;17.10;50.90;;;;;;4994018;28;20065;-68
2022/03/24 10:48:50;;;;;;;48.22;26.15;;;17.20;62.00;;;;;;5021189;28;20044;-69
2022/03/24 10:51:27;;;;;;;41.03;26.15;;;17.10;50.20;;;;;;5022656;28;20037;-69
2022/03/24 10:54:15;;;;;;;39.72;26.67;;;17.40;79.30;;;;;;5017106;28;20038;-68
2022/03/24 10:56:52;;;;;;;46.95;27.60;;;17.40;78.20;;;;;;5012705;28;20033;-70
2022/03/24 10:59:18;;;;;;;40.78;26.25;;;;;;;;;;4999588;28;20053;-68
2022/03/24 11:01:46;;;;;;;42.65;25.60;;;17.20;64.40;;;;;;5018117;28;20041;-68
2022/03/24 11:04:14;;;;;;;51.28;26.92;;;17.70;78.50;;;;;;5005695;28;20050;-68
2022/03/24 11:06:51;;;;;;;42.15;25.65;;;17.60;49.80;;;;;;5001382;28;20120;-68
2022/03/24 11:09:26;;;;;;;40.30;26.58;;;17.60;49.40;;;;;;5019069;28;20541;-68
2022/03/24 11:12:27;;;;;;;38.85;23.85;;;17.70;48.90;;;;;;4992559;28;20044;-68
2022/03/24 11:14:56;;;;;;;40.53;23.35;;;17.70;73.60;;;;;;4997628;28;20041;-68
2022/03/24 11:17:23;;;;;;;41.22;23.33;;;17.70;58.60;;;;;;4994890;28;20041;-68
2022/03/24 11:20:00;;;;;;;45.25;23.17;;;17.60;71.00;;;;;;5012524;28;20044;-68
2022/03/24 11:22:46;;;;;;;35.40;23.80;;;17.90;46.30;;;;;;4997630;28;20049;-68
2022/03/24 11:25:12;;;;;;;29.60;20.08;;;17.90;54.20;;;;;;4996449;28;20046;-68
2022/03/24 11:27:38;;;;;;;33.20;21.15;;;;;;;;;;5000082;28;20037;-68
2022/03/24 11:30:07;;;;;;;30.02;21.27;;;18.20;44.80;;;;;;5025970;28;20087;-69
2022/03/24 11:32:36;;;;;;;33.95;20.95;;;18.30;69.00;;;;;;5016713;28;20111;-70
2022/03/24 11:35:06;;;;;;;35.17;22.55;;;18.40;53.90;;;;;;5025118;28;20095;-70
2022/03/24 11:37:32;;;;;;;36.50;23.67;;;;;;;;;;5007117;28;20052;-70
2022/03/24 11:40:04;;;;;;;40.47;24.05;;;18.40;43.30;;;;;;5027173;28;20466;-70
2022/03/24 11:42:33;;;;;;;32.63;22.95;;;18.30;47.10;;;;;;4997448;28;20045;-70
2022/03/24 11:45:16;;;;;;;35.40;22.77;;;18.10;50.80;;;;;;5028271;28;20041;-70
2022/03/24 11:48:09;;;;;;;37.33;21.63;;;18.20;41.10;;;;;;5023664;28;20036;-70
2022/03/24 11:50:50;;;;;;;38.10;23.17;;;18.30;46.40;;;;;;5014723;28;20049;-70
2022/03/24 11:53:35;;;;;;;32.50;22.98;;;18.30;43.30;;;;;;5015561;28;20061;-69
2022/03/24 11:56:04;;;;;;;34.35;22.40;;;;;;;;;;5014948;28;20041;-69
2022/03/24 11:58:42;;;;;;;37.15;21.95;;;18.60;42.50;;;;;;5011498;28;20053;-70
2022/03/24 12:01:19;;;;;;;28.70;20.85;;;18.80;42.90;;;;;;5006313;28;20049;-69
2022/03/24 12:04:03;;;;;;;30.13;22.02;;;19.30;67.90;;;;;;5011840;28;20397;-69
2022/03/24 12:06:44;;;;;;;34.28;21.70;;;19.10;49.10;;;;;;5009511;28;20049;-69
2022/03/24 12:09:15;;;;;;;30.65;20.70;;;19.30;55.40;;;;;;4992207;28;20046;-69
2022/03/24 12:12:09;;;;;;;29.02;18.85;;;19.30;64.00;;;;;;5008177;28;20485;-69
2022/03/24 12:14:38;;;;;;;37.50;21.00;;;19.30;39.60;;;;;;4997846;28;20136;-69
2022/03/24 12:17:15;;;;;;;30.42;20.55;;;19.10;39.50;;;;;;5009448;28;20486;-70
2022/03/24 12:19:49;;;;;;;31.67;21.55;;;19.20;64.40;;;;;;5009439;28;20089;-71
2022/03/24 12:22:30;;;;;;;29.60;20.08;;;19.10;64.40;;;;;;5008105;28;20048;-71
2022/03/24 12:24:59;;;;;;;28.20;20.00;;;19.20;62.70;;;;;;5027668;28;20049;-71
2022/03/24 12:27:30;;;;;;;28.25;20.20;;;19.60;63.20;;;;;;5002505;28;20475;-70
2022/03/24 12:30:15;;;;;;;34.08;20.77;;;18.90;63.40;;;;;;4992851;28;20060;-70
2022/03/24 12:32:43;;;;;;;34.95;21.00;;;19.90;63.90;;;;;;5002488;28;20549;-69
2022/03/24 12:36:02;;;;;;;30.17;20.17;;;20.10;40.30;;;;;;5002306;28;20044;-69
2022/03/24 12:38:34;;;;;;;31.70;19.83;;;20.20;63.80;;;;;;4950873;28;20042;-70
2022/03/24 12:41:05;;;;;;;29.92;18.42;;;20.30;39.70;;;;;;4995339;28;20054;-70
2022/03/24 12:43:48;;;;;;;36.97;18.20;;;21.10;62.20;;;;;;5017488;28;20037;-70
2022/03/24 12:46:26;;;;;;;32.85;18.83;;;20.40;37.90;;;;;;4995684;28;20045;-70
2022/03/24 12:48:52;;;;;;;27.23;18.58;;;;;;;;;;4991078;28;20510;-77
2022/03/24 12:51:21;;;;;;;27.98;18.10;;;20.40;53.20;;;;;;5011615;28;20037;-77
2022/03/24 12:53:54;;;;;;;31.80;18.63;;;20.70;62.30;;;;;;4995062;28;20481;-77
2022/03/24 12:56:26;;;;;;;28.60;19.20;;;20.30;37.30;;;;;;5012904;28;20116;-78
2022/03/24 12:59:05;;;;;;;35.20;19.30;;;20.30;49.90;;;;;;4994534;28;20045;-77
2022/03/24 13:01:32;;;;;;;29.55;18.55;;;;;;;;;;4994330;28;20050;-77
2022/03/24 13:03:59;;;;;;;29.08;18.60;;;20.10;37.60;;;;;;5006933;28;20461;-77
2022/03/24 13:06:25;;;;;;;33.47;18.42;;;20.10;60.30;;;;;;5007836;28;20073;-77